Time;durP1;ratioP1;P1;durP2;ratioP2;P2;SDS_P1;SDS_P2;PMS_P1;PMS_P2;Temp;Humidity;BMP_temperature;BMP_pressure;BME280_temperature;BME280_humidity;BME280_pressure;Samples;Min_cycle;Max_cycle;Signal;HPM_P1;HPM_P2
2020/12/05 00:02:14;;;;;;;137.30;48.97;;;;;;;5.80;71.63;99764.06;5075123;28;20107;-77
2020/12/05 00:04:39;;;;;;;126.00;48.33;;;;;;;5.34;71.92;99694.97;5075215;28;20037;-76
2020/12/05 00:07:05;;;;;;;140.80;52.03;;;;;;;5.69;72.04;99741.47;5075075;28;20346;-77
2020/12/05 00:09:30;;;;;;;169.70;56.40;;;;;;;5.32;71.56;99683.81;5075061;28;20055;-77
2020/12/05 00:11:55;;;;;;;160.47;55.47;;;;;;;5.74;71.82;99770.69;5057520;28;20021;-77
2020/12/05 00:14:21;;;;;;;148.90;51.77;;;;;;;5.75;71.97;99771.53;5075673;28;20021;-76
2020/12/05 00:16:50;;;;;;;170.70;56.07;;;;;;;5.59;71.95;99753.78;5075662;28;20055;-78
2020/12/05 00:19:17;;;;;;;193.77;56.77;;;;;;;5.34;72.07;99713.31;5083975;28;20338;-78
2020/12/05 00:21:42;;;;;;;170.20;55.43;;;;;;;4.86;72.33;99626.16;5076028;28;20029;-78
2020/12/05 00:24:08;;;;;;;176.87;57.93;;;;;;;5.71;72.68;99770.16;5075291;28;20112;-78
2020/12/05 00:26:33;;;;;;;198.90;57.80;;;;;;;5.16;72.28;99694.00;5075869;28;20338;-77
2020/12/05 00:28:58;;;;;;;185.47;57.17;;;;;;;5.51;72.60;99742.34;5074874;28;20040;-77
2020/12/05 00:31:24;;;;;;;216.07;62.00;;;;;;;5.45;72.34;99738.50;5078227;28;20055;-77
2020/12/05 00:33:50;;;;;;;219.63;64.37;;;;;;;5.74;72.77;99794.28;5079646;28;20033;-77
2020/12/05 00:36:17;;;;;;;199.60;65.77;;;;;;;5.13;72.75;99693.47;5079315;28;20178;-77
2020/12/05 00:38:43;;;;;;;187.33;57.83;;;;;;;5.58;72.97;99769.63;5061118;28;20043;-78
2020/12/05 00:41:10;;;;;;;239.43;66.70;;;;;;;5.23;73.08;99712.63;5079473;28;20032;-78
2020/12/05 00:43:35;;;;;;;218.07;65.53;;;;;;;5.35;73.07;99745.56;5061032;28;20024;-78
2020/12/05 00:46:04;;;;;;;215.13;67.17;;;;;;;5.50;73.04;99753.81;5078791;28;20035;-78
2020/12/05 00:48:30;;;;;;;231.80;63.03;;;;;;;5.71;73.07;99814.69;5079311;28;20031;-78
2020/12/05 00:50:56;;;;;;;242.90;68.17;;;;;;;5.31;73.26;99734.53;5078742;28;20206;-78
2020/12/05 00:53:21;;;;;;;238.60;67.30;;;;;;;5.52;73.14;99764.97;5078762;28;20123;-76
2020/12/05 00:55:47;;;;;;;248.20;71.27;;;;;;;5.66;73.57;99780.22;5061718;28;20024;-78
2020/12/05 00:58:13;;;;;;;282.17;77.23;;;;;;;5.64;73.27;99769.06;5079107;28;20027;-77
2020/12/05 01:00:41;;;;;;;285.00;75.60;;;;;;;5.76;73.73;99809.84;5079532;28;20032;-77
2020/12/05 01:03:06;;;;;;;258.00;65.87;;;;;;;5.76;73.78;99783.66;5078495;28;20082;-77
2020/12/05 01:05:33;;;;;;;243.43;67.60;;;;;;;5.54;73.97;99761.22;5078404;28;20381;-78
2020/12/05 01:08:06;;;;;;;310.83;71.50;;;;;;;5.40;73.76;99730.25;5078086;28;20032;-77
2020/12/05 01:10:33;;;;;;;238.53;65.60;;;;;;;5.62;73.55;99784.94;5060638;28;20036;-77
2020/12/05 01:13:01;;;;;;;255.97;65.30;;;;;;;5.79;73.71;99800.88;5078851;28;20052;-77
2020/12/05 01:15:27;;;;;;;206.87;62.77;;;;;;;5.82;74.07;99816.31;5059835;28;20028;-77
2020/12/05 01:17:53;;;;;;;233.87;65.70;;;;;;;5.27;73.77;99714.00;5077518;28;20020;-77
2020/12/05 01:20:19;;;;;;;269.47;66.60;;;;;;;5.68;73.86;99779.13;5077628;28;20531;-77
2020/12/05 01:22:44;;;;;;;257.60;65.97;;;;;;;5.63;73.69;99789.19;5077271;28;20124;-77
2020/12/05 01:25:09;;;;;;;308.80;69.63;;;;;;;5.72;74.07;99787.53;5068556;28;20063;-77
2020/12/05 01:27:35;;;;;;;265.13;64.40;;;;;;;5.46;73.72;99762.91;5077774;28;20066;-78
2020/12/05 01:30:00;;;;;;;272.43;67.87;;;;;;;5.83;74.39;99807.50;5077324;28;20056;-77
2020/12/05 01:32:26;;;;;;;205.47;61.83;;;;;;;5.64;74.18;99769.91;5059531;28;20024;-78
2020/12/05 01:34:51;;;;;;;243.73;68.93;;;;;;;5.73;74.00;99783.94;5077124;28;20494;-77
2020/12/05 01:37:17;;;;;;;267.13;74.13;;;;;;;5.31;74.18;99745.00;5077323;28;20025;-77
2020/12/05 01:39:42;;;;;;;237.50;68.57;;;;;;;5.55;74.23;99759.44;5076968;28;20047;-77
2020/12/05 01:42:07;;;;;;;276.73;75.43;;;;;;;5.88;74.13;99802.66;5076224;28;20036;-78
2020/12/05 01:44:33;;;;;;;308.77;78.47;;;;;;;5.59;74.31;99766.03;5076934;28;20037;-77
2020/12/05 01:46:59;;;;;;;339.30;80.10;;;;;;;5.77;74.04;99785.31;5076890;28;20410;-77
2020/12/05 01:49:24;;;;;;;310.70;76.20;;;;;;;5.77;74.38;99795.78;5076966;28;20028;-77
2020/12/05 01:51:51;;;;;;;303.87;81.30;;;;;;;5.62;74.36;99769.22;5076930;28;20068;-77
2020/12/05 01:54:17;;;;;;;331.33;80.60;;;;;;;5.64;74.52;99763.84;5059564;28;20044;-77
2020/12/05 01:56:44;;;;;;;318.23;80.63;;;;;;;5.85;74.42;99789.84;5077091;28;20473;-78
2020/12/05 01:59:10;;;;;;;285.57;76.77;;;;;;;5.85;74.48;99785.44;5076833;28;20063;-77
2020/12/05 02:01:38;;;;;;;273.70;71.13;;;;;;;5.75;74.51;99776.78;5076929;28;20029;-78
2020/12/05 02:04:03;;;;;;;314.90;76.67;;;;;;;5.87;74.54;99785.28;5059007;28;20028;-77
2020/12/05 02:07:11;;;;;;;341.87;80.63;;;;;;;5.87;74.96;99785.28;5058977;28;20341;-77
2020/12/05 02:09:43;;;;;;;269.07;72.40;;;;;;;5.69;74.74;99748.53;5077132;28;20107;-77
2020/12/05 02:12:20;;;;;;;403.95;88.63;;;;;;;5.86;75.13;99781.84;5076598;28;20315;-77
2020/12/05 02:14:50;;;;;;;362.43;82.10;;;;;;;5.63;74.74;99741.22;5076706;28;20024;-76
2020/12/05 02:17:16;;;;;;;373.23;86.63;;;;;;;5.88;74.69;99773.84;5058660;28;20029;-77
2020/12/05 02:19:52;;;;;;;386.70;89.67;;;;;;;5.65;74.92;99744.53;5058707;28;20020;-77
2020/12/05 02:22:28;;;;;;;301.97;81.33;;;;;;;5.68;75.02;99762.59;5076355;28;20024;-77
2020/12/05 02:24:56;;;;;;;294.47;78.20;;;;;;;5.71;75.08;99757.06;5076466;28;20063;-77
2020/12/05 02:27:24;;;;;;;324.97;82.17;;;;;;;5.88;74.90;99774.66;5068745;28;20434;-77
2020/12/05 02:29:49;;;;;;;310.60;79.80;;;;;;;5.87;74.88;99780.88;5076485;28;20024;-76
2020/12/05 02:32:15;;;;;;;342.63;84.20;;;;;;;5.39;74.78;99720.75;5076644;28;20319;-77
2020/12/05 02:34:40;;;;;;;397.33;87.03;;;;;;;5.87;75.04;99798.38;5076218;28;20033;-77
2020/12/05 02:37:11;;;;;;;251.90;73.13;;;;;;;5.86;75.10;99800.19;5058090;28;20020;-77
2020/12/05 02:39:40;;;;;;;236.33;69.73;;;;;;;5.39;75.44;99718.94;5076175;28;20029;-78
2020/12/05 02:42:10;;;;;;;254.80;74.70;;;;;;;5.85;75.33;99801.16;5075849;28;20020;-78
2020/12/05 02:44:44;;;;;;;324.57;81.13;;;;;;;5.43;75.25;99736.03;5075741;28;20115;-77
2020/12/05 02:47:09;;;;;;;332.73;80.00;;;;;;;5.88;75.18;99808.72;5075887;28;20031;-77
2020/12/05 02:49:34;;;;;;;354.83;80.10;;;;;;;5.55;75.28;99765.50;5075878;28;20028;-77
2020/12/05 02:52:00;;;;;;;273.27;75.03;;;;;;;5.65;75.45;99779.41;5058186;28;20023;-77
2020/12/05 02:54:25;;;;;;;273.63;72.83;;;;;;;5.86;75.46;99802.81;5058062;28;20016;-76
2020/12/05 02:56:50;;;;;;;289.40;74.90;;;;;;;5.89;75.24;99804.31;5075654;28;20478;-78
2020/12/05 02:59:16;;;;;;;273.30;72.87;;;;;;;5.72;75.29;99780.50;5057940;28;20031;-78
2020/12/05 03:01:41;;;;;;;166.00;59.37;;;;;;;5.91;75.47;99799.78;5057731;28;20029;-76
2020/12/05 03:04:06;;;;;;;271.67;64.97;;;;;;;5.85;75.33;99784.59;5057948;28;20048;-78
2020/12/05 03:06:32;;;;;;;292.23;73.77;;;;;;;5.54;75.10;99744.69;5075462;28;20036;-77
2020/12/05 03:08:57;;;;;;;287.70;74.13;;;;;;;5.91;75.25;99807.66;5057715;28;20051;-78
2020/12/05 03:13:48;;;;;;;212.64;63.60;;;;;;;5.92;75.42;99819.78;5061932;22;20060;-77
2020/12/05 03:16:13;;;;;;;215.17;64.60;;;;;;;5.91;75.46;99820.75;5055241;28;20036;-77
2020/12/05 03:18:38;;;;;;;163.37;56.03;;;;;;;5.70;75.19;99785.06;5055208;28;20489;-77
2020/12/05 03:21:04;;;;;;;180.87;56.90;;;;;;;5.88;75.43;99815.75;5055086;28;20028;-78
2020/12/05 03:23:29;;;;;;;256.43;65.13;;;;;;;5.84;75.73;99822.25;5053956;28;20029;-77
2020/12/05 03:25:56;;;;;;;183.27;54.77;;;;;;;5.84;75.51;99825.69;5055006;28;20064;-77
2020/12/05 03:28:23;;;;;;;246.17;58.30;;;;;;;5.84;75.43;99822.25;5055379;28;20029;-77
2020/12/05 03:30:49;;;;;;;219.13;56.87;;;;;;;5.62;75.43;99807.69;5055063;28;20021;-77
2020/12/05 03:33:14;;;;;;;176.27;56.80;;;;;;;5.79;75.78;99835.78;5045374;28;20035;-77
2020/12/05 03:35:40;;;;;;;146.93;51.67;;;;;;;5.15;75.76;99726.38;5056281;28;20371;-77
2020/12/05 03:38:05;;;;;;;211.00;61.97;;;;;;;5.25;75.74;99729.84;5037830;28;20434;-76
2020/12/05 03:40:30;;;;;;;158.77;53.10;;;;;;;5.84;75.55;99824.88;5056377;28;20025;-78
2020/12/05 03:42:56;;;;;;;175.80;51.77;;;;;;;5.79;75.49;99827.09;5055088;28;20056;-77
2020/12/05 03:45:21;;;;;;;185.57;53.80;;;;;;;5.86;75.29;99820.31;5054905;28;20397;-77
2020/12/05 03:47:46;;;;;;;181.33;52.90;;;;;;;5.87;75.29;99824.59;5037159;28;20112;-77
2020/12/05 03:50:12;;;;;;;204.13;53.37;;;;;;;5.58;75.26;99780.09;5054867;28;20036;-77
2020/12/05 03:52:37;;;;;;;151.10;50.17;;;;;;;5.49;75.42;99752.97;5054657;28;20420;-77
2020/12/05 03:55:03;;;;;;;166.57;50.17;;;;;;;5.42;75.56;99737.00;5036944;28;20040;-76
2020/12/05 03:57:28;;;;;;;156.13;51.10;;;;;;;5.71;75.46;99807.66;5054948;28;20048;-77
2020/12/05 03:59:53;;;;;;;152.67;49.87;;;;;;;5.49;75.27;99762.63;5054594;28;20036;-78
2020/12/05 04:02:19;;;;;;;171.80;50.90;;;;;;;5.86;75.48;99823.78;5054789;28;20091;-77
2020/12/05 04:04:44;;;;;;;176.40;50.07;;;;;;;5.88;75.39;99840.19;5054132;28;20160;-77
2020/12/05 04:07:10;;;;;;;165.00;49.63;;;;;;;5.39;75.36;99752.97;5042418;28;20453;-76
2020/12/05 04:09:35;;;;;;;142.23;47.17;;;;;;;5.49;75.31;99767.84;5053442;28;20454;-77
2020/12/05 04:12:00;;;;;;;145.33;46.43;;;;;;;5.93;75.38;99819.66;5054174;28;20040;-77
2020/12/05 04:14:26;;;;;;;171.57;51.13;;;;;;;5.64;75.35;99785.63;5054608;28;20032;-78
2020/12/05 04:16:51;;;;;;;246.07;58.23;;;;;;;5.39;75.36;99754.78;5053269;28;20131;-76
2020/12/05 04:19:17;;;;;;;185.63;57.83;;;;;;;5.86;75.49;99836.03;5053395;28;20029;-77
2020/12/05 04:21:42;;;;;;;196.33;58.80;;;;;;;5.69;75.29;99814.00;5054517;28;20084;-77
2020/12/05 04:24:07;;;;;;;155.07;51.17;;;;;;;5.73;75.46;99818.00;5054526;28;20343;-78
2020/12/05 04:26:33;;;;;;;256.43;59.30;;;;;;;5.20;75.07;99739.06;5054580;28;20036;-77
2020/12/05 04:28:58;;;;;;;183.97;52.03;;;;;;;5.28;75.25;99747.06;5054391;28;20462;-77
2020/12/05 04:31:23;;;;;;;197.57;58.77;;;;;;;5.80;75.23;99840.06;5054470;28;20029;-76
2020/12/05 04:33:49;;;;;;;181.90;53.03;;;;;;;5.73;75.47;99812.75;5054204;28;20033;-77
2020/12/05 04:36:14;;;;;;;218.60;57.43;;;;;;;5.90;75.16;99848.75;5053175;28;20111;-77
2020/12/05 04:38:40;;;;;;;203.60;57.23;;;;;;;5.44;75.35;99778.75;5061085;28;20025;-77
2020/12/05 04:41:05;;;;;;;172.60;55.70;;;;;;;5.57;75.26;99778.47;5057160;28;20072;-77
2020/12/05 04:43:34;;;;;;;192.53;57.20;;;;;;;6.00;75.37;99839.09;5054503;28;20052;-77
2020/12/05 04:46:01;;;;;;;188.53;58.90;;;;;;;5.70;74.82;99784.22;5053046;28;20103;-77
2020/12/05 04:48:30;;;;;;;198.50;60.20;;;;;;;6.06;75.25;99840.34;5053065;28;20427;-77
2020/12/05 04:51:01;;;;;;;189.93;57.60;;;;;;;5.47;74.99;99754.06;5054038;28;20032;-76
2020/12/05 04:53:26;;;;;;;184.73;59.63;;;;;;;5.79;75.34;99814.00;5053095;28;20415;-77
2020/12/05 04:55:56;;;;;;;197.17;65.03;;;;;;;5.97;75.42;99849.88;5052867;28;20029;-76
2020/12/05 04:58:23;;;;;;;177.50;59.17;;;;;;;6.06;75.15;99848.19;5054392;28;20061;-76
2020/12/05 05:00:54;;;;;;;210.97;60.13;;;;;;;5.86;74.92;99823.78;5052969;28;20116;-77
2020/12/05 05:03:22;;;;;;;188.43;58.73;;;;;;;6.04;74.89;99842.28;5053143;28;20423;-77
2020/12/05 05:05:48;;;;;;;175.87;60.13;;;;;;;5.83;75.07;99803.09;5053917;28;20029;-78
2020/12/05 05:08:15;;;;;;;196.03;59.77;;;;;;;5.88;75.19;99816.59;5052846;28;20060;-77
2020/12/05 05:10:41;;;;;;;187.50;55.63;;;;;;;5.97;75.35;99823.66;5053977;28;20017;-77
2020/12/05 05:13:21;;;;;;;146.10;54.13;;;;;;;5.89;75.00;99820.03;5052577;28;20037;-77
2020/12/05 05:15:47;;;;;;;237.97;60.27;;;;;;;6.13;75.24;99840.59;5053988;28;20036;-77
2020/12/05 05:18:13;;;;;;;206.27;62.90;;;;;;;6.09;75.03;99858.41;5055110;28;20029;-77
2020/12/05 05:20:46;;;;;;;287.77;77.77;;;;;;;6.09;75.31;99841.84;5057690;28;20021;-77
2020/12/05 05:23:17;;;;;;;236.60;73.13;;;;;;;5.34;75.35;99736.03;5057523;28;20132;-78
2020/12/05 05:25:55;;;;;;;260.48;71.03;;;;;;;6.08;75.53;99864.63;5056460;28;20044;-77
2020/12/05 05:28:24;;;;;;;185.60;62.60;;;;;;;6.07;75.38;99864.75;5056544;28;20347;-78
2020/12/05 05:33:50;;;;;;;199.80;63.50;;;;;;;5.99;75.49;99844.50;5055793;28;20051;-78
2020/12/05 05:36:22;;;;;;;258.23;68.72;;;;;;;5.71;75.46;99799.81;5056173;28;20352;-78
2020/12/05 05:39:03;;;;;;;264.58;69.57;;;;;;;6.09;75.40;99861.03;5057147;28;20064;-78
2020/12/05 05:41:29;;;;;;;267.93;73.97;;;;;;;6.00;75.18;99856.63;5056003;28;20033;-76
2020/12/05 05:43:57;;;;;;;312.17;89.63;;;;;;;5.88;75.49;99839.34;5059081;28;20039;-78
2020/12/05 05:46:28;;;;;;;195.87;68.37;;;;;;;5.93;75.97;99852.88;5067790;28;20029;-78
2020/12/05 05:48:54;;;;;;;313.73;89.53;;;;;;;6.02;75.67;99866.00;5056140;28;20163;-77
2020/12/05 05:51:48;;;;;;;299.27;87.87;;;;;;;5.89;76.12;99854.09;5055931;28;20506;-77
2020/12/05 05:54:18;;;;;;;226.47;71.50;;;;;;;6.03;75.38;99861.59;5057107;28;20100;-77
2020/12/05 05:56:57;;;;;;;277.83;75.40;;;;;;;6.02;75.66;99862.56;5056845;28;20021;-77
2020/12/05 05:59:24;;;;;;;276.60;75.67;;;;;;;5.91;75.95;99837.31;5056027;28;20383;-77
2020/12/05 06:01:51;;;;;;;262.30;72.57;;;;;;;5.85;76.10;99826.53;5056547;28;20025;-78
2020/12/05 06:04:27;;;;;;;234.40;69.13;;;;;;;6.05;76.07;99857.03;5056839;28;20442;-78
2020/12/05 06:06:53;;;;;;;204.70;66.37;;;;;;;5.92;75.53;99832.88;5056778;28;20028;-77
2020/12/05 06:09:24;;;;;;;235.47;74.47;;;;;;;6.10;75.69;99862.69;5055535;28;20025;-78
2020/12/05 06:11:56;;;;;;;250.53;73.77;;;;;;;6.05;75.61;99854.41;5055300;28;20079;-76
2020/12/05 06:14:22;;;;;;;219.57;73.82;;;;;;;6.15;76.00;99868.31;5055547;28;20021;-77
2020/12/05 06:16:56;;;;;;;276.30;93.57;;;;;;;6.05;75.88;99844.75;5056410;28;20033;-77
2020/12/05 06:19:23;;;;;;;287.80;94.70;;;;;;;6.14;76.02;99857.97;5055345;28;20025;-77
2020/12/05 06:21:54;;;;;;;314.23;100.57;;;;;;;6.23;75.83;99865.00;5056060;28;20036;-78
2020/12/05 06:24:32;;;;;;;227.88;80.28;;;;;;;6.18;75.89;99865.41;5056508;28;20048;-77
2020/12/05 06:27:01;;;;;;;297.17;89.13;;;;;;;5.91;75.87;99816.34;5056141;28;20029;-78
2020/12/05 06:29:27;;;;;;;259.53;87.87;;;;;;;6.27;75.84;99896.03;5055964;28;20029;-77
2020/12/05 06:31:52;;;;;;;249.63;84.67;;;;;;;6.05;75.73;99847.38;5056067;28;20078;-77
2020/12/05 06:34:35;;;;;;;226.50;79.97;;;;;;;6.26;76.67;99883.88;5056106;28;20060;-77
2020/12/05 06:37:01;;;;;;;234.20;88.43;;;;;;;5.68;75.79;99792.22;5054860;28;20028;-77
2020/12/05 06:39:27;;;;;;;260.23;95.20;;;;;;;6.09;75.89;99849.72;5055023;28;20048;-77
2020/12/05 06:41:53;;;;;;;314.93;96.40;;;;;;;6.33;75.61;99887.59;5055708;28;20511;-76
2020/12/05 06:44:36;;;;;;;234.33;71.43;;;;;;;5.93;76.02;99822.25;5054770;28;20025;-77
2020/12/05 06:47:04;;;;;;;406.90;82.83;;;;;;;6.36;75.97;99883.84;5054672;28;20435;-76
2020/12/05 06:49:36;;;;;;;392.43;98.03;;;;;;;6.34;75.91;99886.63;5056330;28;20031;-76
2020/12/05 06:52:26;;;;;;;337.10;91.30;;;;;;;6.32;76.06;99888.56;5067002;28;20048;-76
2020/12/05 06:55:05;;;;;;;228.97;78.37;;;;;;;5.85;76.46;99813.44;5056500;28;20025;-76
2020/12/05 06:57:33;;;;;;;462.57;99.53;;;;;;;5.73;75.80;99802.28;5055674;28;20020;-76
2020/12/05 07:00:11;;;;;;;254.03;79.23;;;;;;;6.32;76.42;99906.91;5055397;28;20025;-76
2020/12/05 07:02:36;;;;;;;309.27;85.73;;;;;;;6.36;76.00;99907.47;5055506;28;20025;-76
2020/12/05 07:05:20;;;;;;;164.13;65.77;;;;;;;6.39;75.95;99904.56;5055373;28;20040;-76
2020/12/05 07:07:47;;;;;;;164.93;65.97;;;;;;;6.35;75.72;99903.19;5055707;28;20079;-77
2020/12/05 07:10:14;;;;;;;273.20;85.40;;;;;;;6.50;76.07;99903.56;5054123;28;20025;-78
2020/12/05 07:12:40;;;;;;;264.80;85.27;;;;;;;6.27;75.73;99877.66;5054149;28;20449;-77
2020/12/05 07:15:23;;;;;;;210.60;69.03;;;;;;;6.07;76.08;99843.78;5055138;28;20098;-77
2020/12/05 07:17:55;;;;;;;;;;;;;;;6.46;76.68;99910.06;5054702;28;20020;-77
2020/12/05 07:20:21;;;;;;;207.63;67.93;;;;;;;6.24;75.93;99870.09;5055309;28;19915;-77
2020/12/05 07:22:54;;;;;;;143.70;57.97;;;;;;;6.18;76.24;99856.72;5054957;28;20029;-79
2020/12/05 07:25:20;;;;;;;144.67;56.17;;;;;;;6.20;75.83;99850.38;5055203;28;20053;-77
2020/12/05 07:27:47;;;;;;;175.17;65.40;;;;;;;6.47;75.76;99883.69;5055138;28;20021;-77
2020/12/05 07:30:12;;;;;;;129.57;53.33;;;;;;;6.65;76.08;99926.56;5055145;28;20016;-76
2020/12/05 07:32:40;;;;;;;101.07;44.23;;;;;;;6.68;75.75;99920.19;5054100;28;20445;-79
2020/12/05 07:35:08;;;;;;;91.97;40.73;;;;;;;6.76;75.78;99916.88;5053833;28;20024;-75
2020/12/05 07:37:34;;;;;;;116.43;47.13;;;;;;;6.81;75.67;99919.91;5054942;28;20431;-76
2020/12/05 07:40:00;;;;;;;97.60;42.57;;;;;;;6.85;75.82;99926.50;5054525;28;20493;-76
2020/12/05 07:42:42;;;;;;;104.97;45.87;;;;;;;6.80;75.80;99921.69;5053973;28;20127;-76
2020/12/05 07:45:16;;;;;;;100.00;41.50;;;;;;;6.91;75.35;99950.38;5053780;28;20021;-76
2020/12/05 07:47:42;;;;;;;105.87;43.93;;;;;;;6.20;74.96;99811.03;5053765;28;20347;-76
2020/12/05 07:50:10;;;;;;;136.53;48.60;;;;;;;6.40;74.93;99858.16;5054624;28;20031;-75
2020/12/05 07:52:39;;;;;;;112.13;45.23;;;;;;;6.84;75.34;99949.31;5053889;28;20024;-78
2020/12/05 07:55:06;;;;;;;129.73;45.77;;;;;;;6.43;75.26;99871.00;5053665;28;20060;-78
2020/12/05 07:57:36;;;;;;;106.90;44.77;;;;;;;6.94;75.78;99955.34;5057032;28;20028;-78
2020/12/05 08:00:06;;;;;;;111.97;42.93;;;;;;;6.82;75.14;99940.75;5054489;28;20033;-75
2020/12/05 08:02:34;;;;;;;97.37;40.60;;;;;;;7.03;75.09;99965.94;5054831;28;20029;-75
2020/12/05 08:05:08;;;;;;;105.03;43.07;;;;;;;7.05;75.41;99964.81;5054482;28;20040;-76
2020/12/05 08:07:35;;;;;;;103.97;46.37;;;;;;;7.06;74.79;99979.59;5055079;28;20029;-75
2020/12/05 08:10:13;;;;;;;98.90;43.93;;;;;;;7.01;74.81;99952.97;5053601;28;20083;-74
2020/12/05 08:12:59;;;;;;;97.17;44.33;;;;;;;6.94;75.72;99939.59;5053772;28;20028;-76
2020/12/05 08:15:27;;;;;;;99.87;42.43;;;;;;;7.15;75.15;99983.16;5054391;28;20078;-76
2020/12/05 08:17:54;;;;;;;90.53;40.00;;;;;;;7.17;74.83;99973.34;5054262;28;20511;-77
2020/12/05 08:20:20;;;;;;;96.03;43.00;;;;;;;6.89;75.05;99939.19;5053373;28;20383;-75
2020/12/05 08:22:45;;;;;;;89.97;40.40;;;;;;;7.16;74.86;99980.38;5054417;28;20053;-75
2020/12/05 08:25:11;;;;;;;94.37;38.57;;;;;;;7.18;75.21;99975.81;5054407;28;20382;-75
2020/12/05 08:27:38;;;;;;;94.43;40.70;;;;;;;7.21;75.21;99979.94;5054325;28;20021;-76
2020/12/05 08:30:06;;;;;;;80.20;36.70;;;;;;;6.94;75.27;99926.47;5053066;28;20074;-75
2020/12/05 08:32:31;;;;;;;86.13;35.20;;;;;;;7.17;75.24;99966.28;5054264;28;20431;-78
2020/12/05 08:35:08;;;;;;;77.70;36.10;;;;;;;6.86;75.15;99896.66;5054524;28;20024;-77
2020/12/05 08:37:34;;;;;;;75.40;33.93;;;;;;;7.30;74.84;99958.06;5054509;28;20025;-76
2020/12/05 08:40:00;;;;;;;76.20;34.03;;;;;;;7.34;75.25;99967.31;5053169;28;20025;-76
2020/12/05 08:42:26;;;;;;;87.90;37.00;;;;;;;7.29;74.36;99953.78;5054073;28;20088;-77
2020/12/05 08:44:52;;;;;;;101.07;41.77;;;;;;;7.41;74.54;99957.03;5054098;28;20025;-78
2020/12/05 08:47:18;;;;;;;109.03;44.27;;;;;;;7.33;75.18;99942.00;5053246;28;20021;-75
2020/12/05 08:49:48;;;;;;;104.33;43.30;;;;;;;7.42;74.84;99951.63;5054335;28;20402;-77
2020/12/05 08:52:15;;;;;;;95.47;38.27;;;;;;;7.46;75.35;99947.75;5055553;28;20017;-77
2020/12/05 08:54:43;;;;;;;93.27;39.63;;;;;;;7.50;75.33;99957.00;5057121;28;20027;-77
2020/12/05 08:57:11;;;;;;;91.77;36.70;;;;;;;7.40;75.04;99931.75;5057781;28;20025;-77
2020/12/05 08:59:37;;;;;;;82.67;33.70;;;;;;;6.98;74.58;99864.00;5057768;28;20021;-74
2020/12/05 09:02:03;;;;;;;84.20;31.73;;;;;;;7.64;74.67;99961.75;5057590;28;20032;-77
2020/12/05 09:04:33;;;;;;;78.30;33.03;;;;;;;7.69;75.04;99961.31;5057586;28;20029;-78
2020/12/05 09:07:16;;;;;;;74.97;33.47;;;;;;;7.11;75.00;99853.13;5057608;28;20047;-77
2020/12/05 09:09:44;;;;;;;74.50;32.73;;;;;;;7.82;74.40;99950.41;5057786;28;20021;-78
2020/12/05 09:12:11;;;;;;;80.83;36.33;;;;;;;7.90;74.42;99961.00;5056205;28;20036;-76
2020/12/05 09:14:37;;;;;;;75.60;32.73;;;;;;;7.60;73.94;99893.88;5057516;28;20025;-77
2020/12/05 09:17:03;;;;;;;74.97;34.20;;;;;;;8.00;73.76;99951.22;5057296;28;20056;-76
2020/12/05 09:19:30;;;;;;;69.00;34.67;;;;;;;7.82;73.59;99908.34;5056466;28;20455;-77
2020/12/05 09:21:57;;;;;;;79.70;35.37;;;;;;;7.80;73.82;99884.03;5056315;28;20473;-76
2020/12/05 09:24:22;;;;;;;83.50;36.17;;;;;;;8.15;73.31;99947.09;5057469;28;20021;-76
2020/12/05 09:26:55;;;;;;;88.40;37.35;;;;;;;7.91;73.78;99907.44;5057150;28;20489;-76
2020/12/05 09:29:21;;;;;;;79.30;37.17;;;;;;;7.91;73.51;99921.41;5057431;28;20047;-76
2020/12/05 09:31:49;;;;;;;90.57;38.72;;;;;;;7.96;73.45;99905.19;5056097;28;20100;-76
2020/12/05 09:34:14;;;;;;;87.90;40.00;;;;;;;8.10;73.52;99932.75;5057105;28;20025;-76
2020/12/05 09:36:40;;;;;;;86.63;38.20;;;;;;;8.21;73.34;99959.66;5057098;28;20075;-76
2020/12/05 09:39:05;;;;;;;97.03;41.35;;;;;;;7.79;73.64;99904.22;5056996;28;20496;-76
2020/12/05 09:41:34;;;;;;;74.43;39.20;;;;;;;8.15;73.73;99948.88;5056763;28;20047;-77
2020/12/05 09:44:00;;;;;;;74.17;35.30;;;;;;;7.94;73.74;99917.66;5055683;28;20435;-76
2020/12/05 09:46:25;;;;;;;77.90;35.85;;;;;;;7.95;73.90;99900.91;5056909;28;20078;-77
2020/12/05 09:48:51;;;;;;;79.77;35.23;;;;;;;8.27;73.45;99950.31;5056931;28;20099;-76
2020/12/05 09:51:16;;;;;;;78.78;36.55;;;;;;;8.00;73.27;99901.28;5056770;28;20025;-76
2020/12/05 09:53:41;;;;;;;78.70;37.45;;;;;;;8.10;73.13;99909.91;5056740;28;20021;-76
2020/12/05 09:56:06;;;;;;;86.90;39.55;;;;;;;7.74;73.83;99850.47;5056527;28;20021;-77
2020/12/05 09:58:32;;;;;;;83.50;37.33;;;;;;;8.32;73.92;99942.81;5056739;28;20032;-76
2020/12/05 10:00:57;;;;;;;90.97;41.25;;;;;;;8.15;73.16;99918.16;5056647;28;20036;-76
2020/12/05 10:03:23;;;;;;;87.90;39.40;;;;;;;8.33;73.77;99939.22;5055854;28;20060;-77
2020/12/05 10:05:48;;;;;;;97.95;39.03;;;;;;;8.03;73.60;99892.25;5056549;28;20032;-77
2020/12/05 10:08:13;;;;;;;99.75;42.63;;;;;;;8.41;73.53;99955.06;5056364;28;20439;-77
2020/12/05 10:10:39;;;;;;;84.40;38.47;;;;;;;8.33;73.34;99935.72;5056379;28;20450;-78
2020/12/05 10:13:04;;;;;;;92.85;39.15;;;;;;;8.05;73.39;99875.34;5056107;28;20025;-76
2020/12/05 10:15:29;;;;;;;89.75;39.22;;;;;;;8.46;73.98;99936.19;5056385;28;20450;-77
2020/12/05 10:17:55;;;;;;;91.13;39.97;;;;;;;8.36;73.51;99907.34;5056203;28;20367;-76
2020/12/05 10:20:20;;;;;;;89.55;41.00;;;;;;;8.42;73.94;99933.03;5056284;28;20031;-76
2020/12/05 10:22:45;;;;;;;89.03;42.47;;;;;;;8.35;74.12;99907.50;5056156;28;20052;-76
2020/12/05 10:25:11;;;;;;;79.20;33.88;;;;;;;8.44;74.35;99941.59;5054928;28;20367;-76
2020/12/05 10:27:38;;;;;;;88.57;34.80;;;;;;;7.97;74.46;99864.78;5054755;28;20033;-76
2020/12/05 10:30:03;;;;;;;78.25;34.20;;;;;;;8.06;73.99;99878.81;5055901;28;20024;-77
2020/12/05 10:32:28;;;;;;;78.00;34.55;;;;;;;8.40;74.13;99940.25;5054831;28;20021;-77
2020/12/05 10:34:54;;;;;;;79.93;33.93;;;;;;;8.41;73.87;99935.81;5055839;28;20039;-76
2020/12/05 10:37:19;;;;;;;87.88;38.05;;;;;;;8.53;74.11;99942.47;5054814;28;20116;-76
2020/12/05 10:39:47;;;;;;;80.17;35.30;;;;;;;8.53;73.67;99943.31;5055830;28;20027;-76
2020/12/05 10:42:12;;;;;;;87.10;37.58;;;;;;;8.53;74.18;99958.25;5055576;28;20029;-76
2020/12/05 10:44:37;;;;;;;112.32;50.63;;;;;;;8.47;74.31;99940.47;5055603;28;20339;-76
2020/12/05 10:47:03;;;;;;;91.93;42.13;;;;;;;8.01;74.23;99862.66;5055897;28;20121;-76
2020/12/05 10:49:28;;;;;;;95.00;43.53;;;;;;;8.33;74.18;99905.03;5055562;28;20024;-77
2020/12/05 10:51:54;;;;;;;71.53;31.92;;;;;;;8.34;74.43;99901.41;5055557;28;20096;-76
2020/12/05 10:54:19;;;;;;;75.70;34.92;;;;;;;8.10;74.15;99859.09;5054438;28;20025;-77
2020/12/05 10:56:45;;;;;;;75.45;35.60;;;;;;;8.31;74.01;99875.38;5055588;28;20020;-77
2020/12/05 10:59:10;;;;;;;87.25;36.28;;;;;;;8.57;74.35;99922.75;5037592;28;20056;-76
2020/12/05 11:01:36;;;;;;;83.82;37.05;;;;;;;8.70;74.49;99931.06;5055344;28;20033;-77
2020/12/05 11:04:01;;;;;;;70.32;34.28;;;;;;;8.67;73.65;99912.94;5051532;28;20108;-76
2020/12/05 11:06:27;;;;;;;65.20;31.73;;;;;;;8.58;73.82;99901.56;5035285;28;20405;-76
2020/12/05 11:08:54;;;;;;;60.65;28.98;;;;;;;8.37;73.81;99868.69;5035461;28;20032;-77
2020/12/05 11:11:21;;;;;;;52.70;25.58;;;;;;;8.85;73.42;99920.75;5035263;28;20029;-76
2020/12/05 11:13:46;;;;;;;50.13;26.40;;;;;;;8.77;73.76;99911.03;5034817;28;20463;-77
2020/12/05 11:16:17;;;;;;;57.50;29.70;;;;;;;8.77;73.35;99910.19;5035007;28;20060;-78
2020/12/05 11:18:42;;;;;;;67.68;31.63;;;;;;;8.94;73.40;99924.28;5035275;28;20033;-76
2020/12/05 11:21:08;;;;;;;67.95;33.97;;;;;;;8.87;73.49;99895.94;5034784;28;20049;-77
2020/12/05 11:23:33;;;;;;;63.92;30.38;;;;;;;8.70;73.08;99873.16;5050527;28;20033;-76
2020/12/05 11:25:58;;;;;;;64.95;31.50;;;;;;;8.64;73.44;99854.53;5033904;28;20025;-77
2020/12/05 11:28:24;;;;;;;60.42;31.08;;;;;;;8.88;73.05;99878.31;5050427;28;20035;-77